Time;durP1;ratioP1;P1;durP2;ratioP2;P2;SDS_P1;SDS_P2;PMS_P1;PMS_P2;Temp;Humidity;BMP_temperature;BMP_pressure;BME280_temperature;BME280_humidity;BME280_pressure;Samples;Min_cycle;Max_cycle;Signal;HPM_P1;HPM_P2
2021/08/07 00:02:18;;;;;;;11.10;5.80;;;15.90;97.60;;;;;;5032884;28;20410;-71
2021/08/07 00:04:44;;;;;;;10.97;5.53;;;15.90;97.60;;;;;;5032997;28;20050;-71
2021/08/07 00:07:09;;;;;;;10.47;5.63;;;15.90;97.70;;;;;;5032067;28;20095;-71
2021/08/07 00:09:35;;;;;;;12.73;5.57;;;15.90;97.70;;;;;;5031570;28;20073;-71
2021/08/07 00:12:01;;;;;;;11.43;5.83;;;15.90;97.70;;;;;;5032773;28;20517;-71
2021/08/07 00:14:26;;;;;;;12.13;6.23;;;15.80;97.70;;;;;;5031969;28;20405;-71
2021/08/07 00:16:52;;;;;;;10.77;6.10;;;15.80;97.60;;;;;;5032961;28;20052;-70
2021/08/07 00:19:18;;;;;;;10.67;6.10;;;15.80;97.60;;;;;;5032592;28;20053;-70
2021/08/07 00:21:43;;;;;;;10.73;6.20;;;15.80;97.60;;;;;;5032305;28;20494;-70
2021/08/07 00:24:09;;;;;;;8.90;5.87;;;15.80;97.60;;;;;;5032375;28;20160;-70
2021/08/07 00:26:35;;;;;;;11.20;6.53;;;15.90;97.70;;;;;;5032829;28;20059;-70
2021/08/07 00:29:00;;;;;;;10.93;6.60;;;15.90;97.60;;;;;;5031526;28;20438;-70
2021/08/07 00:31:26;;;;;;;11.77;6.70;;;15.90;97.60;;;;;;5032517;28;20059;-71
2021/08/07 00:33:51;;;;;;;11.83;6.27;;;15.90;97.70;;;;;;5032413;28;20494;-70
2021/08/07 00:36:17;;;;;;;12.97;7.20;;;15.90;97.70;;;;;;5031744;28;20051;-70
2021/08/07 00:38:42;;;;;;;9.83;6.40;;;15.90;97.70;;;;;;5032628;28;20071;-70
2021/08/07 00:41:08;;;;;;;13.87;7.07;;;15.90;97.70;;;;;;5032420;28;20095;-70
2021/08/07 00:43:34;;;;;;;9.93;7.40;;;15.90;97.70;;;;;;5031873;28;20045;-70
2021/08/07 00:46:00;;;;;;;11.87;7.57;;;15.90;97.80;;;;;;5032243;28;20049;-71
2021/08/07 00:48:26;;;;;;;15.47;7.53;;;15.80;97.80;;;;;;5031753;28;20422;-70
2021/08/07 00:50:53;;;;;;;14.37;7.97;;;15.80;97.90;;;;;;5032371;28;20056;-70
2021/08/07 00:53:20;;;;;;;11.13;7.87;;;15.80;98.00;;;;;;5032234;28;20466;-70
2021/08/07 00:55:46;;;;;;;11.40;8.00;;;15.90;98.10;;;;;;5031442;28;20474;-70
2021/08/07 00:58:11;;;;;;;10.33;7.37;;;15.90;98.20;;;;;;5031913;28;20116;-70
2021/08/07 01:00:37;;;;;;;10.23;8.20;;;15.90;98.20;;;;;;5032306;28;20056;-70
2021/08/07 01:03:10;;;;;;;8.97;7.17;;;15.90;98.20;;;;;;5031014;28;20053;-70
2021/08/07 01:05:43;;;;;;;9.33;7.53;;;16.00;98.30;;;;;;5032292;28;20213;-70
2021/08/07 01:08:18;;;;;;;11.40;9.07;;;16.00;98.30;;;;;;5031834;28;20136;-70
2021/08/07 01:11:12;;;;;;;10.43;8.40;;;16.00;98.30;;;;;;5031441;28;20108;-70
2021/08/07 01:13:44;;;;;;;14.23;7.47;;;16.00;98.30;;;;;;5032044;28;20065;-70
2021/08/07 01:16:14;;;;;;;9.20;7.83;;;16.00;98.30;;;;;;5031604;28;20056;-70
2021/08/07 01:18:43;;;;;;;13.27;7.90;;;16.00;98.30;;;;;;5031487;28;20049;-70
2021/08/07 01:21:15;;;;;;;9.90;7.37;;;16.00;98.20;;;;;;5031730;28;20053;-69
2021/08/07 01:23:49;;;;;;;13.17;7.70;;;16.00;98.20;;;;;;5031231;28;20492;-70
2021/08/07 01:26:18;;;;;;;8.37;6.97;;;16.00;98.20;;;;;;5031626;28;20069;-69
2021/08/07 01:28:45;;;;;;;8.60;6.57;;;16.00;98.20;;;;;;5032008;28;20041;-69
2021/08/07 01:31:14;;;;;;;12.37;6.70;;;16.10;98.20;;;;;;5031334;28;20407;-69
2021/08/07 01:33:45;;;;;;;9.80;6.20;;;16.10;98.10;;;;;;5032218;28;20056;-70
2021/08/07 01:36:13;;;;;;;10.70;5.57;;;16.10;98.10;;;;;;5035369;28;20081;-69
2021/08/07 01:38:45;;;;;;;10.07;5.63;;;16.10;98.00;;;;;;5034955;28;20049;-69
2021/08/07 01:41:19;;;;;;;7.07;5.07;;;16.10;97.90;;;;;;5035501;28;20057;-70
2021/08/07 01:43:45;;;;;;;8.23;4.60;;;16.10;97.80;;;;;;5035827;28;20045;-69
2021/08/07 01:46:13;;;;;;;12.17;4.77;;;16.10;97.70;;;;;;5034693;28;20107;-69
2021/08/07 01:48:54;;;;;;;8.67;4.53;;;16.10;97.60;;;;;;5035461;28;20053;-69
2021/08/07 01:51:25;;;;;;;9.27;3.80;;;16.10;97.50;;;;;;5035105;28;20509;-69
2021/08/07 01:53:56;;;;;;;12.82;4.38;;;16.10;97.40;;;;;;5034907;28;20061;-68
2021/08/07 01:56:28;;;;;;;7.00;3.90;;;16.00;97.30;;;;;;5035302;28;20049;-69
2021/08/07 01:59:04;;;;;;;7.87;3.67;;;16.10;97.20;;;;;;5034809;28;20057;-70
2021/08/07 02:01:30;;;;;;;6.87;3.40;;;16.10;97.10;;;;;;5035156;28;20041;-69
2021/08/07 02:04:01;;;;;;;7.10;3.40;;;16.00;97.00;;;;;;5035415;28;20065;-69
2021/08/07 02:06:30;;;;;;;5.77;2.90;;;16.00;96.90;;;;;;5034664;28;20148;-69
2021/08/07 02:08:57;;;;;;;7.47;3.37;;;16.00;96.70;;;;;;5035366;28;20091;-68
2021/08/07 02:11:23;;;;;;;7.17;3.47;;;16.00;96.50;;;;;;5034896;28;20049;-68
2021/08/07 02:13:49;;;;;;;9.10;2.73;;;15.90;96.40;;;;;;5034293;28;20045;-69
2021/08/07 02:16:18;;;;;;;6.30;3.17;;;16.00;96.30;;;;;;5034746;28;20096;-69
2021/08/07 02:18:45;;;;;;;6.53;2.50;;;15.90;96.20;;;;;;5035056;28;20140;-69
2021/08/07 02:21:12;;;;;;;7.63;2.90;;;15.90;96.20;;;;;;5034046;28;20049;-69
2021/08/07 02:23:39;;;;;;;9.23;3.10;;;15.90;96.20;;;;;;5034958;28;20049;-69
2021/08/07 02:26:07;;;;;;;6.23;2.80;;;15.90;96.10;;;;;;5034559;28;20120;-69
2021/08/07 02:28:33;;;;;;;4.30;2.40;;;15.90;96.10;;;;;;5033988;28;20096;-69
2021/08/07 02:31:00;;;;;;;7.27;3.07;;;15.90;96.10;;;;;;5035173;28;20072;-68
2021/08/07 02:33:27;;;;;;;4.93;3.00;;;15.90;96.10;;;;;;5034569;28;20486;-69
2021/08/07 02:35:55;;;;;;;6.33;2.53;;;15.80;96.00;;;;;;5034043;28;20049;-69
2021/08/07 02:38:22;;;;;;;4.70;2.40;;;15.80;96.00;;;;;;5034125;28;20546;-69
2021/08/07 02:40:48;;;;;;;6.70;2.83;;;15.80;95.90;;;;;;5033828;28;20132;-69
2021/08/07 02:43:16;;;;;;;6.33;2.40;;;15.80;95.80;;;;;;5034199;28;20053;-69
2021/08/07 02:45:43;;;;;;;8.37;2.57;;;15.70;95.80;;;;;;5034607;28;20084;-69
2021/08/07 02:48:10;;;;;;;6.27;3.10;;;15.70;95.80;;;;;;5033621;28;20308;-69
2021/08/07 02:50:38;;;;;;;5.63;2.50;;;15.70;95.80;;;;;;5034433;28;20107;-69
2021/08/07 02:53:04;;;;;;;9.63;3.23;;;15.70;95.80;;;;;;5034236;28;20494;-69
2021/08/07 02:55:30;;;;;;;8.70;2.87;;;15.70;95.80;;;;;;5033600;28;20103;-69
2021/08/07 02:57:56;;;;;;;10.80;2.87;;;15.60;95.70;;;;;;5034146;28;20080;-68
2021/08/07 03:00:22;;;;;;;7.17;2.57;;;15.60;95.70;;;;;;5033979;28;20053;-69
2021/08/07 03:02:48;;;;;;;6.43;2.43;;;15.60;95.60;;;;;;5033667;28;20052;-69
2021/08/07 03:05:14;;;;;;;7.37;2.30;;;15.60;95.60;;;;;;5033874;28;20053;-69
2021/08/07 03:07:40;;;;;;;4.27;1.93;;;15.60;95.60;;;;;;5034200;28;20045;-69
2021/08/07 03:10:08;;;;;;;6.33;2.40;;;15.60;95.50;;;;;;5032805;28;20072;-68
2021/08/07 03:12:36;;;;;;;9.17;2.60;;;15.60;95.40;;;;;;5034418;28;20050;-69
2021/08/07 03:15:07;;;;;;;7.77;2.80;;;15.60;95.40;;;;;;5033396;28;20126;-68
2021/08/07 03:17:33;;;;;;;6.40;2.88;;;15.50;95.40;;;;;;5033385;28;20046;-69
2021/08/07 03:19:59;;;;;;;7.87;2.87;;;15.50;95.70;;;;;;5033749;28;20063;-69
2021/08/07 03:22:25;;;;;;;5.63;2.27;;;15.50;95.30;;;;;;5033708;28;20092;-69
2021/08/07 03:24:50;;;;;;;7.23;2.40;;;15.60;95.30;;;;;;5032968;28;20142;-69
2021/08/07 03:27:16;;;;;;;8.30;2.60;;;15.50;95.30;;;;;;5034011;28;20041;-69
2021/08/07 03:29:42;;;;;;;6.80;3.00;;;15.50;95.20;;;;;;5033743;28;20167;-68
2021/08/07 03:32:17;;;;;;;5.50;3.23;;;15.50;95.30;;;;;;5032869;28;20045;-68
2021/08/07 03:34:44;;;;;;;6.43;2.80;;;15.50;95.30;;;;;;5033716;28;20052;-69
2021/08/07 03:37:10;;;;;;;7.13;3.13;;;15.50;95.30;;;;;;5032295;28;20050;-69
2021/08/07 03:39:36;;;;;;;8.87;2.67;;;15.50;95.30;;;;;;5033522;28;20083;-69
2021/08/07 03:42:02;;;;;;;5.43;2.80;;;15.40;95.30;;;;;;5033052;28;20080;-68
2021/08/07 03:44:28;;;;;;;4.47;2.40;;;15.40;95.30;;;;;;5032800;28;20050;-69
2021/08/07 03:46:53;;;;;;;11.33;3.13;;;15.40;95.40;;;;;;5033518;28;20055;-69
2021/08/07 03:49:22;;;;;;;8.27;3.07;;;15.30;95.30;;;;;;5032899;28;20076;-69
2021/08/07 03:51:47;;;;;;;10.10;2.90;;;15.30;95.30;;;;;;5032494;28;20053;-68
2021/08/07 03:54:13;;;;;;;7.93;3.03;;;15.30;95.40;;;;;;5032993;28;20056;-69
2021/08/07 03:56:39;;;;;;;6.87;3.20;;;15.30;95.40;;;;;;5033346;28;20430;-69
2021/08/07 03:59:04;;;;;;;7.27;3.13;;;15.20;95.50;;;;;;5031976;28;20080;-69
2021/08/07 04:01:30;;;;;;;7.07;3.30;;;15.20;95.50;;;;;;5032948;28;20100;-69
2021/08/07 04:03:56;;;;;;;5.73;3.03;;;15.20;95.50;;;;;;5033137;28;20049;-68
2021/08/07 04:06:21;;;;;;;6.57;2.93;;;15.20;95.50;;;;;;5031126;28;20132;-69
2021/08/07 04:08:47;;;;;;;7.20;3.37;;;15.20;95.60;;;;;;5033073;28;20126;-69
2021/08/07 04:11:12;;;;;;;7.63;3.03;;;15.10;95.60;;;;;;5032695;28;20048;-69
2021/08/07 04:13:38;;;;;;;10.47;3.50;;;15.10;95.70;;;;;;5032158;28;20470;-69
2021/08/07 04:16:04;;;;;;;11.13;2.87;;;15.10;95.70;;;;;;5032412;28;20057;-69
2021/08/07 04:18:30;;;;;;;7.73;3.20;;;15.00;95.70;;;;;;5032672;28;20047;-69
2021/08/07 04:20:56;;;;;;;8.10;3.03;;;15.00;95.70;;;;;;5031876;28;20049;-69
2021/08/07 04:23:22;;;;;;;6.73;3.03;;;15.00;95.70;;;;;;5032556;28;20045;-69
2021/08/07 04:25:48;;;;;;;9.10;3.87;;;15.00;95.80;;;;;;5032598;28;20041;-69
2021/08/07 04:28:14;;;;;;;7.63;3.63;;;14.90;95.80;;;;;;5031722;28;20053;-69
2021/08/07 04:30:40;;;;;;;6.97;3.43;;;14.90;95.90;;;;;;5032690;28;20071;-69
2021/08/07 04:33:05;;;;;;;8.40;3.47;;;14.90;95.90;;;;;;5032465;28;20124;-69
2021/08/07 04:35:31;;;;;;;7.77;3.53;;;14.90;95.90;;;;;;5031728;28;20127;-69
2021/08/07 04:37:58;;;;;;;8.77;3.77;;;14.90;95.90;;;;;;5032641;28;20115;-69
2021/08/07 04:40:28;;;;;;;8.60;3.57;;;14.90;95.90;;;;;;5031282;28;20079;-69
2021/08/07 04:42:54;;;;;;;8.20;3.70;;;14.80;95.90;;;;;;5032789;28;20553;-69
2021/08/07 04:45:20;;;;;;;10.40;3.73;;;14.80;95.90;;;;;;5032261;28;20080;-68
2021/08/07 04:48:11;;;;;;;10.57;3.73;;;14.80;95.90;;;;;;5031852;28;20521;-70
2021/08/07 04:50:38;;;;;;;9.00;3.40;;;14.80;96.00;;;;;;5031055;28;20049;-69
2021/08/07 04:53:04;;;;;;;12.50;4.37;;;14.80;96.00;;;;;;5032092;28;20041;-69
2021/08/07 04:55:30;;;;;;;11.13;3.33;;;14.70;96.00;;;;;;5031514;28;20045;-69
2021/08/07 04:57:56;;;;;;;12.27;3.70;;;14.80;96.00;;;;;;5032110;28;20096;-69
2021/08/07 05:00:23;;;;;;;8.90;3.90;;;14.70;96.00;;;;;;5031790;28;20049;-69
2021/08/07 05:02:49;;;;;;;8.70;4.07;;;14.70;96.10;;;;;;5031311;28;20049;-68
2021/08/07 05:05:15;;;;;;;12.03;4.20;;;14.80;96.10;;;;;;5031895;28;20053;-69
2021/08/07 05:07:42;;;;;;;8.70;3.90;;;14.80;96.10;;;;;;5032506;28;20179;-69
2021/08/07 05:10:09;;;;;;;9.70;3.97;;;14.70;96.20;;;;;;5033150;28;20057;-69
2021/08/07 05:12:35;;;;;;;5.53;3.40;;;14.70;96.20;;;;;;5036132;28;20050;-69
2021/08/07 05:15:01;;;;;;;9.40;4.37;;;14.70;96.20;;;;;;5035644;28;20122;-69
2021/08/07 05:17:27;;;;;;;10.23;4.10;;;14.80;96.20;;;;;;5035572;28;20042;-70
2021/08/07 05:19:54;;;;;;;10.17;4.13;;;14.80;96.20;;;;;;5036074;28;20056;-69
2021/08/07 05:22:21;;;;;;;11.50;4.30;;;14.90;96.20;;;;;;5035776;28;20532;-69
2021/08/07 05:24:47;;;;;;;10.40;3.83;;;14.90;96.20;;;;;;5035309;28;20053;-69
2021/08/07 05:27:13;;;;;;;10.60;4.03;;;14.90;96.10;;;;;;5035731;28;20188;-69
2021/08/07 05:29:39;;;;;;;10.03;4.23;;;14.90;96.10;;;;;;5035113;28;20056;-69
2021/08/07 05:32:05;;;;;;;11.30;4.17;;;15.00;96.10;;;;;;5035490;28;20108;-70
2021/08/07 05:34:31;;;;;;;8.07;3.80;;;15.00;96.00;;;;;;5035845;28;20073;-69
2021/08/07 05:36:56;;;;;;;9.20;4.00;;;15.00;96.00;;;;;;5035047;28;20061;-69
2021/08/07 05:39:22;;;;;;;11.00;4.03;;;15.00;96.00;;;;;;5035509;28;20071;-69
2021/08/07 05:41:48;;;;;;;11.23;3.80;;;15.00;95.90;;;;;;5035768;28;20088;-69
2021/08/07 05:44:13;;;;;;;11.90;4.17;;;15.10;95.90;;;;;;5034453;28;20049;-69
2021/08/07 05:46:39;;;;;;;12.60;3.87;;;15.10;95.90;;;;;;5035718;28;20144;-69
2021/08/07 05:49:05;;;;;;;16.47;4.47;;;15.10;95.90;;;;;;5035426;28;20041;-69
2021/08/07 05:51:34;;;;;;;13.10;4.07;;;15.10;96.40;;;;;;5034941;28;20377;-69
2021/08/07 05:54:01;;;;;;;8.63;3.30;;;15.10;95.90;;;;;;5035468;28;20095;-69
2021/08/07 05:56:27;;;;;;;8.60;3.30;;;15.20;96.00;;;;;;5035597;28;20072;-69
2021/08/07 05:58:52;;;;;;;10.13;3.57;;;15.30;95.80;;;;;;5034471;28;20049;-69
2021/08/07 06:01:18;;;;;;;14.10;4.40;;;15.30;95.80;;;;;;5035220;28;20474;-69
2021/08/07 06:03:44;;;;;;;10.30;3.70;;;15.40;95.90;;;;;;5035345;28;20104;-69
2021/08/07 06:06:09;;;;;;;11.60;3.77;;;15.50;95.80;;;;;;5034448;28;20075;-69
2021/08/07 06:08:35;;;;;;;13.20;4.43;;;15.70;95.60;;;;;;5035431;28;20045;-68
2021/08/07 06:11:00;;;;;;;11.93;3.63;;;15.90;95.30;;;;;;5034894;28;20052;-69
2021/08/07 06:13:26;;;;;;;9.70;3.37;;;15.90;94.90;;;;;;5034347;28;20050;-69
2021/08/07 06:15:52;;;;;;;8.03;3.60;;;15.90;94.80;;;;;;5035070;28;20061;-69
2021/08/07 06:18:18;;;;;;;10.30;3.60;;;16.00;94.90;;;;;;5035118;28;20053;-68
2021/08/07 06:20:44;;;;;;;8.70;3.23;;;15.90;94.80;;;;;;5034003;28;20418;-69
2021/08/07 06:23:10;;;;;;;10.30;3.63;;;15.90;94.80;;;;;;5034992;28;20041;-68
2021/08/07 06:25:36;;;;;;;9.77;3.50;;;16.00;94.80;;;;;;5034939;28;20049;-68
2021/08/07 06:28:03;;;;;;;9.53;3.13;;;16.00;94.80;;;;;;5033770;28;20509;-68
2021/08/07 06:30:29;;;;;;;9.60;3.40;;;16.00;94.70;;;;;;5034994;28;20049;-69
2021/08/07 06:32:55;;;;;;;10.77;3.77;;;16.00;94.60;;;;;;5034507;28;20048;-69
2021/08/07 06:35:21;;;;;;;10.43;3.40;;;16.10;94.70;;;;;;5034603;28;20050;-68
2021/08/07 06:37:47;;;;;;;9.53;2.93;;;16.10;94.60;;;;;;5034703;28;20052;-68
2021/08/07 06:40:13;;;;;;;10.07;3.17;;;16.20;94.50;;;;;;5033554;28;20049;-69
2021/08/07 06:42:39;;;;;;;6.00;3.13;;;16.20;94.40;;;;;;5034658;28;20049;-69
2021/08/07 06:45:06;;;;;;;10.03;3.30;;;16.30;94.40;;;;;;5034467;28;20068;-69
2021/08/07 06:47:31;;;;;;;10.40;3.40;;;16.30;94.40;;;;;;5033973;28;20409;-69
2021/08/07 06:49:57;;;;;;;11.03;3.73;;;16.40;94.30;;;;;;5034558;28;20045;-69
2021/08/07 06:52:23;;;;;;;10.93;3.60;;;16.40;94.20;;;;;;5034253;28;20053;-69
2021/08/07 06:54:49;;;;;;;6.13;3.13;;;16.40;94.10;;;;;;5033039;28;20095;-68
2021/08/07 06:57:19;;;;;;;6.70;2.70;;;16.40;94.00;;;;;;5033699;28;20052;-69
2021/08/07 06:59:45;;;;;;;14.90;3.40;;;16.40;93.90;;;;;;5033334;28;20049;-69
2021/08/07 07:02:10;;;;;;;6.97;3.07;;;16.40;93.90;;;;;;5033167;28;20136;-69
2021/08/07 07:04:36;;;;;;;7.73;3.03;;;16.40;94.00;;;;;;5033863;28;20498;-68
2021/08/07 07:07:03;;;;;;;10.40;3.27;;;16.40;93.80;;;;;;5036434;28;20039;-69
2021/08/07 07:09:28;;;;;;;7.27;2.80;;;16.50;93.80;;;;;;5042149;28;20513;-68
2021/08/07 07:11:54;;;;;;;11.90;3.53;;;16.50;93.60;;;;;;5043412;28;20040;-67
2021/08/07 07:14:20;;;;;;;6.23;2.70;;;16.50;93.60;;;;;;5043780;28;20155;-69
2021/08/07 07:16:47;;;;;;;10.20;3.60;;;16.60;93.60;;;;;;5041833;28;20042;-69
2021/08/07 07:19:13;;;;;;;8.83;2.67;;;16.60;93.40;;;;;;5042681;28;20072;-68
2021/08/07 07:21:39;;;;;;;9.67;3.80;;;16.70;93.40;;;;;;5043414;28;20056;-69
2021/08/07 07:24:05;;;;;;;14.00;3.53;;;16.70;93.20;;;;;;5040995;28;20049;-69
2021/08/07 07:26:31;;;;;;;10.60;2.97;;;16.70;92.80;;;;;;5044086;28;20642;-68
2021/08/07 07:28:57;;;;;;;9.23;2.67;;;16.70;92.80;;;;;;5043115;28;20121;-69
2021/08/07 07:31:24;;;;;;;8.83;2.80;;;16.80;92.80;;;;;;5040830;28;20060;-68
2021/08/07 07:33:50;;;;;;;9.50;3.00;;;16.80;92.80;;;;;;5042858;28;20049;-67
2021/08/07 07:36:16;;;;;;;7.97;2.63;;;16.80;92.80;;;;;;5041606;28;20045;-68
2021/08/07 07:38:42;;;;;;;8.37;2.63;;;16.90;92.80;;;;;;5042626;28;20052;-69
2021/08/07 07:41:08;;;;;;;9.03;2.50;;;17.00;92.30;;;;;;5043524;28;20055;-68
2021/08/07 07:43:34;;;;;;;9.87;3.13;;;17.00;92.20;;;;;;5041876;28;20817;-67
2021/08/07 07:46:00;;;;;;;12.90;2.90;;;17.10;92.00;;;;;;5041794;28;20045;-68
2021/08/07 07:48:25;;;;;;;11.50;2.47;;;17.20;92.00;;;;;;5043765;28;20045;-68
2021/08/07 07:50:51;;;;;;;8.73;2.50;;;17.30;92.00;;;;;;5040611;28;20132;-68
2021/08/07 07:53:18;;;;;;;8.00;2.00;;;17.30;92.00;;;;;;5042311;28;20056;-68
2021/08/07 07:55:44;;;;;;;7.53;2.10;;;17.40;91.70;;;;;;5043746;28;20124;-68
2021/08/07 07:58:10;;;;;;;8.40;2.00;;;17.50;91.70;;;;;;5042057;28;20450;-68
2021/08/07 08:00:36;;;;;;;6.97;1.80;;;17.60;91.50;;;;;;5041909;28;20128;-68
2021/08/07 08:03:02;;;;;;;8.57;2.07;;;17.60;91.20;;;;;;5041739;28;20056;-69
2021/08/07 08:05:28;;;;;;;12.27;2.20;;;17.60;91.20;;;;;;5048612;28;20391;-68
2021/08/07 08:07:53;;;;;;;9.43;2.20;;;17.60;90.80;;;;;;5052629;28;20063;-68
2021/08/07 08:10:19;;;;;;;7.83;2.00;;;17.60;90.90;;;;;;5051905;28;20049;-69
2021/08/07 08:12:45;;;;;;;7.30;2.00;;;17.60;91.00;;;;;;5051921;28;20133;-68
2021/08/07 08:15:13;;;;;;;5.50;2.30;;;17.60;90.80;;;;;;5052005;28;20102;-69
2021/08/07 08:17:39;;;;;;;7.33;1.93;;;17.70;90.70;;;;;;5052634;28;20090;-68
2021/08/07 08:20:13;;;;;;;9.03;2.03;;;17.60;90.40;;;;;;5051247;28;20456;-69
2021/08/07 08:22:40;;;;;;;7.60;2.13;;;17.60;90.40;;;;;;5052499;28;20055;-69
2021/08/07 08:25:10;;;;;;;7.57;2.60;;;17.70;90.90;;;;;;5052207;28;20048;-69
2021/08/07 08:27:36;;;;;;;6.33;1.90;;;18.00;91.30;;;;;;5051325;28;20079;-71
2021/08/07 08:30:08;;;;;;;5.27;2.03;;;18.40;90.90;;;;;;5051858;28;20049;-71
2021/08/07 08:32:34;;;;;;;9.40;2.17;;;18.70;90.60;;;;;;5051565;28;20471;-69
2021/08/07 08:35:00;;;;;;;8.13;2.33;;;19.00;90.30;;;;;;5051781;28;20045;-70
2021/08/07 08:37:26;;;;;;;4.90;2.05;;;19.20;89.30;;;;;;5051887;28;20126;-71
2021/08/07 08:39:52;;;;;;;7.13;2.08;;;19.30;87.40;;;;;;5051193;28;20049;-70
2021/08/07 08:42:20;;;;;;;5.65;1.52;;;19.20;85.90;;;;;;5051795;28;20049;-70
2021/08/07 08:44:46;;;;;;;6.57;1.65;;;19.20;85.40;;;;;;5051864;28;20053;-70
2021/08/07 08:47:14;;;;;;;7.55;1.50;;;19.20;84.80;;;;;;5050856;28;20080;-71
2021/08/07 08:49:40;;;;;;;5.78;1.83;;;19.20;84.50;;;;;;5051759;28;20059;-70
2021/08/07 08:52:06;;;;;;;5.18;1.50;;;19.30;84.30;;;;;;5051649;28;20118;-69
2021/08/07 08:54:33;;;;;;;5.03;1.88;;;19.40;82.60;;;;;;5051051;28;20049;-71
2021/08/07 08:56:58;;;;;;;5.75;1.27;;;19.40;81.70;;;;;;5051991;28;20076;-70
2021/08/07 08:59:24;;;;;;;5.45;1.40;;;19.40;80.30;;;;;;5051684;28;20486;-71
2021/08/07 09:01:51;;;;;;;4.63;1.33;;;19.30;79.20;;;;;;5051085;28;20501;-70
2021/08/07 09:04:17;;;;;;;5.32;1.30;;;19.30;79.00;;;;;;5051390;28;20053;-70
2021/08/07 09:06:46;;;;;;;8.17;1.40;;;19.30;79.00;;;;;;5051762;28;20386;-70
2021/08/07 09:09:13;;;;;;;7.13;1.77;;;19.30;78.40;;;;;;5051189;28;20055;-69
2021/08/07 09:11:59;;;;;;;8.20;1.47;;;19.30;78.70;;;;;;5052247;28;20106;-70
2021/08/07 09:14:30;;;;;;;3.93;1.20;;;19.40;78.20;;;;;;5051273;28;20053;-69
2021/08/07 09:17:03;;;;;;;2.97;0.90;;;19.50;78.20;;;;;;5051204;28;20099;-70
2021/08/07 09:19:40;;;;;;;3.00;1.07;;;19.60;78.50;;;;;;5051699;28;20053;-70
2021/08/07 09:22:08;;;;;;;3.40;1.00;;;19.80;77.70;;;;;;5050851;28;20071;-71
2021/08/07 09:24:34;;;;;;;3.07;1.10;;;19.80;75.50;;;;;;5051584;28;20528;-70
2021/08/07 09:27:02;;;;;;;3.65;1.35;;;20.00;75.80;;;;;;5051618;28;20049;-70
2021/08/07 09:29:41;;;;;;;3.65;1.20;;;20.20;75.70;;;;;;5051434;28;20413;-73
2021/08/07 09:32:06;;;;;;;2.17;0.82;;;20.50;75.80;;;;;;5051346;28;20045;-70
2021/08/07 09:34:35;;;;;;;5.13;1.00;;;20.60;76.30;;;;;;5051329;28;20048;-71
2021/08/07 09:37:01;;;;;;;6.03;1.23;;;20.80;76.50;;;;;;5050790;28;20563;-71
2021/08/07 09:39:38;;;;;;;4.60;1.02;;;21.00;76.30;;;;;;5051230;28;20478;-71
2021/08/07 09:42:07;;;;;;;2.17;0.90;;;21.20;73.10;;;;;;5051002;28;20060;-72
2021/08/07 09:44:35;;;;;;;2.35;1.08;;;21.10;71.90;;;;;;5050882;28;20045;-71
2021/08/07 09:47:15;;;;;;;2.40;1.02;;;21.10;71.60;;;;;;5051377;28;20414;-71
2021/08/07 09:49:45;;;;;;;5.22;1.20;;;21.10;72.20;;;;;;5052043;28;20044;-71
2021/08/07 09:52:11;;;;;;;3.22;0.98;;;21.20;71.80;;;;;;5050683;28;20071;-70
2021/08/07 09:54:43;;;;;;;1.27;0.68;;;21.30;70.70;;;;;;5051734;28;20057;-71
2021/08/07 09:57:21;;;;;;;3.63;1.00;;;21.30;69.50;;;;;;5053329;28;20072;-71
2021/08/07 09:59:48;;;;;;;4.70;1.27;;;21.20;68.80;;;;;;5052819;28;20064;-70
2021/08/07 10:02:24;;;;;;;3.65;1.08;;;21.20;68.80;;;;;;5052565;28;20393;-71
2021/08/07 10:04:50;;;;;;;2.50;0.90;;;21.30;67.00;;;;;;5051900;28;20045;-73
2021/08/07 10:07:15;;;;;;;3.60;0.82;;;21.30;65.70;;;;;;5052942;28;20099;-69
2021/08/07 10:09:41;;;;;;;1.55;0.52;;;21.20;66.50;;;;;;5052609;28;20048;-71
2021/08/07 10:12:10;;;;;;;3.75;0.88;;;21.20;66.10;;;;;;5052221;28;20055;-71
2021/08/07 10:14:37;;;;;;;1.73;0.70;;;21.20;66.20;;;;;;5054482;28;20128;-70
2021/08/07 10:17:05;;;;;;;2.72;0.52;;;21.20;66.60;;;;;;5053631;28;20120;-71
2021/08/07 10:19:33;;;;;;;4.32;0.98;;;21.20;66.00;;;;;;5052644;28;20044;-70
2021/08/07 10:22:00;;;;;;;5.25;0.63;;;21.20;65.40;;;;;;5054433;28;20041;-71
2021/08/07 10:24:28;;;;;;;2.92;0.70;;;21.20;64.90;;;;;;5054833;28;20075;-70
2021/08/07 10:26:57;;;;;;;1.63;0.65;;;21.10;65.00;;;;;;5054044;28;20141;-70
2021/08/07 10:29:53;;;;;;;2.13;0.70;;;21.20;65.40;;;;;;5054104;28;20060;-70
2021/08/07 10:32:20;;;;;;;4.13;1.00;;;21.20;65.10;;;;;;5053416;28;20045;-70
2021/08/07 10:34:49;;;;;;;3.25;0.70;;;21.30;66.50;;;;;;5054038;28;20069;-70
2021/08/07 10:37:15;;;;;;;2.70;0.70;;;21.40;66.80;;;;;;5053813;28;20057;-69
2021/08/07 10:39:41;;;;;;;1.50;0.63;;;21.50;65.80;;;;;;5053122;28;20118;-70
2021/08/07 10:42:16;;;;;;;3.72;0.82;;;21.50;65.90;;;;;;5053201;28;20437;-70
2021/08/07 10:44:44;;;;;;;2.97;0.80;;;21.50;66.90;;;;;;5054067;28;20099;-69
2021/08/07 10:47:10;;;;;;;5.63;2.22;;;21.60;66.50;;;;;;5053476;28;20457;-71
2021/08/07 10:49:41;;;;;;;3.20;0.82;;;21.70;65.60;;;;;;5054024;28;20057;-69
2021/08/07 10:52:34;;;;;;;3.88;0.85;;;21.80;65.00;;;;;;5054151;28;20387;-70
2021/08/07 10:55:00;;;;;;;2.17;0.73;;;21.90;65.60;;;;;;5053437;28;20060;-70
2021/08/07 10:57:37;;;;;;;3.15;0.90;;;22.00;64.80;;;;;;5054322;28;20049;-69
2021/08/07 11:00:25;;;;;;;4.45;1.13;;;22.10;64.90;;;;;;5054021;28;20415;-70
2021/08/07 11:03:14;;;;;;;2.83;0.75;;;22.20;64.50;;;;;;5054331;28;20045;-70
2021/08/07 11:05:51;;;;;;;1.80;0.70;;;22.30;65.30;;;;;;5053909;28;20124;-69
2021/08/07 11:08:18;;;;;;;2.88;0.60;;;22.30;64.00;;;;;;5051893;28;20061;-71
2021/08/07 11:10:45;;;;;;;2.75;0.90;;;22.30;65.60;;;;;;5054075;28;20480;-73
2021/08/07 11:13:26;;;;;;;4.70;1.27;;;22.20;63.90;;;;;;5053884;28;20053;-71
2021/08/07 11:16:18;;;;;;;3.80;0.60;;;22.00;62.90;;;;;;5053111;28;20421;-71
2021/08/07 11:18:44;;;;;;;2.83;0.85;;;21.80;64.00;;;;;;5053879;28;20041;-71
2021/08/07 11:21:48;;;;;;;4.75;1.40;;;21.70;64.80;;;;;;5053642;28;20390;-71
2021/08/07 11:24:56;;;;;;;3.85;1.10;;;21.50;64.20;;;;;;5053420;28;20548;-71
2021/08/07 11:28:03;;;;;;;2.45;0.98;;;21.40;66.20;;;;;;5053169;28;20140;-71
2021/08/07 11:30:39;;;;;;;5.30;1.13;;;21.40;66.60;;;;;;5052595;28;20099;-71
2021/08/07 11:33:11;;;;;;;4.25;0.93;;;21.50;66.70;;;;;;5053459;28;20452;-71
2021/08/07 11:35:41;;;;;;;3.38;0.95;;;21.70;65.80;;;;;;5052365;28;20056;-70
2021/08/07 11:38:15;;;;;;;3.20;1.00;;;21.90;65.40;;;;;;5053028;28;20478;-71
2021/08/07 11:40:47;;;;;;;4.30;0.90;;;22.10;65.20;;;;;;5052951;28;20063;-71
2021/08/07 11:43:13;;;;;;;6.35;1.27;;;22.10;63.90;;;;;;5048791;28;20058;-70
2021/08/07 11:45:40;;;;;;;3.42;0.85;;;22.20;64.60;;;;;;5043900;28;20124;-70
2021/08/07 11:48:06;;;;;;;3.08;0.90;;;22.20;64.40;;;;;;5041222;28;20097;-70
2021/08/07 11:50:32;;;;;;;3.67;1.20;;;22.20;66.10;;;;;;5042149;28;20063;-70
2021/08/07 11:52:59;;;;;;;3.85;1.17;;;22.30;66.10;;;;;;5042774;28;20042;-70
2021/08/07 11:55:32;;;;;;;1.42;0.85;;;22.30;66.20;;;;;;5041526;28;20045;-71
2021/08/07 11:58:05;;;;;;;4.30;0.95;;;22.40;65.70;;;;;;5043722;28;20049;-70
2021/08/07 12:00:33;;;;;;;4.30;1.00;;;22.40;63.90;;;;;;5053004;28;20061;-71
2021/08/07 12:03:07;;;;;;;4.75;1.05;;;22.40;63.40;;;;;;5052661;28;20501;-71
2021/08/07 12:05:35;;;;;;;4.72;1.02;;;22.30;63.00;;;;;;5052341;28;20489;-72
2021/08/07 12:08:03;;;;;;;4.05;1.10;;;22.10;63.50;;;;;;5052877;28;20048;-71
2021/08/07 12:10:30;;;;;;;2.50;0.93;;;21.90;63.50;;;;;;5052732;28;20068;-70
2021/08/07 12:12:57;;;;;;;5.95;1.17;;;21.80;63.80;;;;;;5053086;28;20049;-71
2021/08/07 12:15:23;;;;;;;3.85;1.10;;;21.80;64.30;;;;;;5052388;28;20065;-71
2021/08/07 12:17:49;;;;;;;3.95;1.13;;;22.00;64.60;;;;;;5051850;28;20056;-70
2021/08/07 12:20:15;;;;;;;1.77;0.75;;;22.30;63.40;;;;;;5052243;28;20124;-72
2021/08/07 12:23:02;;;;;;;3.85;1.00;;;22.50;62.50;;;;;;5052817;28;20137;-71
2021/08/07 12:25:30;;;;;;;4.20;0.90;;;22.70;61.60;;;;;;5052046;28;20055;-71
2021/08/07 12:28:05;;;;;;;5.00;1.10;;;22.80;61.20;;;;;;5052895;28;20059;-70
2021/08/07 12:30:31;;;;;;;3.10;0.90;;;22.90;61.30;;;;;;5052357;28;20512;-72
2021/08/07 12:33:17;;;;;;;2.08;0.85;;;22.90;60.90;;;;;;5051899;28;20056;-72
2021/08/07 12:35:43;;;;;;;2.28;1.05;;;22.90;61.10;;;;;;5052408;28;20049;-72
2021/08/07 12:38:17;;;;;;;4.97;1.20;;;22.70;60.90;;;;;;5052264;28;20049;-71
2021/08/07 12:40:44;;;;;;;2.60;1.10;;;22.60;61.60;;;;;;5051496;28;20049;-71
2021/08/07 12:43:10;;;;;;;4.63;1.25;;;22.40;60.80;;;;;;5051826;28;20052;-70
2021/08/07 12:45:37;;;;;;;4.72;1.00;;;22.40;61.00;;;;;;5051834;28;20509;-70
2021/08/07 12:48:03;;;;;;;3.67;1.05;;;22.50;61.90;;;;;;5051347;28;20041;-71
2021/08/07 12:50:28;;;;;;;3.10;1.20;;;22.70;61.40;;;;;;5052302;28;20083;-71